Terminal Aerodrome Forecast
Issued by NWS

Home | Current Version | Previous Version | Text Only | Print | Product List | Glossary On
Versions: 1 2 3 4 5 6 7 8 9 10 11 12 13 14 15
000
FTAK31 PANC 242330
TAFAAQ
TAF
PAAQ 242330Z 2500/2524 VRB03KT P6SM VCSH BKN060
     FM250300 VRB03KT P6SM -SHSN BKN050
     FM251200 VRB03KT P6SM SCT030 OVC060=

USA.gov is the U.S. government's official web portal to all federal, state and local government web resources and services.